Time;durP1;ratioP1;P1;durP2;ratioP2;P2;SDS_P1;SDS_P2;PMS_P1;PMS_P2;Temp;Humidity;BMP_temperature;BMP_pressure;BME280_temperature;BME280_humidity;BME280_pressure;Samples;Min_cycle;Max_cycle;Signal;HPM_P1;HPM_P2
2021/06/02 00:00:44;;;;;;;3.50;2.95;;;8.60;99.90;;;;;;2089696;28;20207;-68
2021/06/02 00:01:59;;;;;;;4.83;3.17;;;8.70;99.90;;;;;;2089402;28;20173;-68
2021/06/02 00:03:03;;;;;;;3.13;2.80;;;8.70;99.90;;;;;;2098435;28;20183;-68
2021/06/02 00:04:07;;;;;;;3.85;3.35;;;8.70;99.90;;;;;;2092183;28;20879;-68
2021/06/02 00:05:09;;;;;;;3.38;2.85;;;8.60;99.90;;;;;;2093853;28;20594;-68
2021/06/02 00:06:10;;;;;;;3.10;2.80;;;8.60;99.90;;;;;;2097703;28;20553;-68
2021/06/02 00:07:17;;;;;;;3.40;3.00;;;8.60;99.90;;;;;;2098470;28;20542;-68
2021/06/02 00:08:18;;;;;;;3.22;2.80;;;8.60;99.90;;;;;;2089352;28;20188;-68
2021/06/02 00:09:19;;;;;;;4.60;3.05;;;8.60;99.90;;;;;;2081234;28;20185;-68
2021/06/02 00:10:21;;;;;;;3.97;3.35;;;8.60;99.90;;;;;;2089470;28;20185;-67
2021/06/02 00:11:22;;;;;;;4.65;3.13;;;8.60;99.90;;;;;;2098105;28;20634;-68
2021/06/02 00:12:23;;;;;;;5.40;3.33;;;8.50;99.90;;;;;;2098247;28;20589;-67
2021/06/02 00:13:25;;;;;;;5.07;3.40;;;8.50;99.90;;;;;;2098526;28;20180;-68
2021/06/02 00:14:27;;;;;;;4.50;2.90;;;8.50;99.90;;;;;;2098295;28;20237;-68
2021/06/02 00:15:28;;;;;;;2.95;2.65;;;8.50;99.90;;;;;;2098343;28;20665;-68
2021/06/02 00:16:29;;;;;;;4.57;3.17;;;8.50;99.90;;;;;;2098217;28;20186;-68
2021/06/02 00:17:30;;;;;;;4.15;2.85;;;8.40;99.90;;;;;;2089479;28;20221;-67
2021/06/02 00:18:31;;;;;;;3.30;2.77;;;8.40;99.90;;;;;;2089457;28;20177;-68
2021/06/02 00:19:33;;;;;;;3.50;2.97;;;8.40;99.90;;;;;;2083703;28;20183;-67
2021/06/02 00:20:34;;;;;;;4.57;3.10;;;8.40;99.90;;;;;;2081333;28;20177;-68
2021/06/02 00:21:34;;;;;;;3.13;2.83;;;8.40;99.90;;;;;;2098059;28;20186;-68
2021/06/02 00:22:36;;;;;;;5.40;3.10;;;8.40;99.90;;;;;;2097326;28;20877;-68
2021/06/02 00:23:37;;;;;;;3.13;2.83;;;8.30;99.90;;;;;;2089494;28;20184;-67
2021/06/02 00:24:38;;;;;;;3.15;2.78;;;8.40;99.90;;;;;;2089387;28;20184;-68
2021/06/02 00:25:39;;;;;;;3.35;3.00;;;8.40;99.90;;;;;;2098363;28;20560;-68
2021/06/02 00:26:41;;;;;;;5.33;3.57;;;8.40;99.90;;;;;;2098090;28;20186;-67
2021/06/02 00:27:44;;;;;;;4.18;3.30;;;8.40;99.90;;;;;;2089436;28;20193;-68
2021/06/02 00:28:45;;;;;;;3.55;3.25;;;8.30;99.90;;;;;;2089553;28;20743;-68
2021/06/02 00:29:46;;;;;;;5.20;3.47;;;8.30;99.90;;;;;;2089423;28;20188;-68
2021/06/02 00:30:47;;;;;;;3.10;2.80;;;8.30;99.90;;;;;;2089191;28;20173;-68
2021/06/02 00:31:48;;;;;;;3.30;3.00;;;8.20;99.90;;;;;;2089104;28;20204;-68
2021/06/02 00:32:50;;;;;;;4.07;3.00;;;8.20;99.90;;;;;;2089139;28;20189;-68
2021/06/02 00:33:52;;;;;;;3.42;3.08;;;8.20;99.90;;;;;;2097652;28;20176;-68
2021/06/02 00:34:53;;;;;;;5.93;3.63;;;8.20;99.90;;;;;;2089143;28;20227;-68
2021/06/02 00:35:54;;;;;;;6.60;3.20;;;8.20;99.90;;;;;;2089393;28;20662;-68
2021/06/02 00:36:58;;;;;;;4.43;2.92;;;8.20;99.90;;;;;;2098126;28;20505;-68
2021/06/02 00:37:59;;;;;;;3.53;3.22;;;8.20;99.90;;;;;;2089213;28;20185;-68
2021/06/02 00:39:01;;;;;;;4.23;3.23;;;8.10;99.90;;;;;;2081050;28;20656;-68
2021/06/02 00:40:03;;;;;;;4.45;3.25;;;8.10;99.90;;;;;;2089284;28;20177;-67
2021/06/02 00:41:04;;;;;;;4.95;3.08;;;8.10;99.90;;;;;;2098047;28;20314;-68
2021/06/02 00:42:05;;;;;;;4.47;3.30;;;8.10;99.90;;;;;;2089132;28;20218;-68
2021/06/02 00:43:07;;;;;;;3.90;3.20;;;8.00;99.90;;;;;;2089186;28;20939;-68
2021/06/02 00:44:11;;;;;;;3.30;2.85;;;8.00;99.90;;;;;;2089266;28;20192;-68
2021/06/02 00:45:16;;;;;;;5.95;3.22;;;8.00;99.90;;;;;;2089635;28;20227;-68
2021/06/02 00:46:20;;;;;;;3.58;2.95;;;8.00;99.90;;;;;;2089331;28;20195;-68
2021/06/02 00:47:23;;;;;;;4.45;2.92;;;8.00;99.90;;;;;;2089545;28;20215;-68
2021/06/02 00:48:25;;;;;;;3.95;3.05;;;8.00;99.90;;;;;;2097524;28;20256;-68
2021/06/02 01:29:15;;;;;;;3.90;3.05;;;7.70;99.90;;;;;;2097749;28;20678;-68
2021/06/02 01:30:21;;;;;;;3.08;2.75;;;7.70;99.90;;;;;;2095413;28;20190;-68
2021/06/02 01:31:43;;;;;;;5.32;3.30;;;7.60;99.90;;;;;;2097206;28;20181;-68
2021/06/02 01:33:30;;;;;;;4.53;3.40;;;7.60;99.90;;;;;;2097543;28;20270;-68
2021/06/02 01:35:08;;;;;;;3.65;3.22;;;7.60;99.90;;;;;;2097288;28;20189;-68
2021/06/02 01:36:13;;;;;;;4.05;3.00;;;7.60;99.90;;;;;;2097375;28;20545;-68
2021/06/02 01:37:44;;;;;;;4.20;3.38;;;7.60;99.90;;;;;;2088668;28;20620;-68
2021/06/02 01:38:59;;;;;;;5.05;3.15;;;7.60;99.90;;;;;;2093097;28;20258;-68
2021/06/02 01:40:39;;;;;;;4.50;3.38;;;7.50;99.90;;;;;;2088534;28;20183;-68
2021/06/02 01:42:06;;;;;;;3.25;2.95;;;7.50;99.90;;;;;;2094308;28;20197;-68
2021/06/02 01:43:31;;;;;;;4.28;3.40;;;7.50;99.90;;;;;;2088702;28;20491;-68
2021/06/02 01:45:03;;;;;;;4.72;3.20;;;7.40;99.90;;;;;;2092111;28;20172;-68
2021/06/02 01:47:00;;;;;;;3.97;3.30;;;7.40;99.90;;;;;;2097388;28;20181;-68
2021/06/02 01:48:39;;;;;;;3.85;3.03;;;7.40;99.90;;;;;;2066258;28;20201;-68
2021/06/02 01:50:14;;;;;;;5.40;3.45;;;7.40;99.90;;;;;;2088623;28;20168;-68
2021/06/02 01:51:39;;;;;;;3.65;3.22;;;7.40;99.90;;;;;;2093183;28;20207;-68
2021/06/02 01:53:10;;;;;;;4.05;3.00;;;7.40;99.90;;;;;;2097349;28;20197;-68
2021/06/02 01:54:32;;;;;;;4.88;3.38;;;7.50;99.90;;;;;;2097537;28;20555;-68
2021/06/02 01:55:59;;;;;;;3.83;3.15;;;7.50;99.90;;;;;;2097393;28;20179;-68
2021/06/02 01:57:30;;;;;;;4.82;3.33;;;7.60;99.90;;;;;;2097457;28;20175;-68
2021/06/02 01:59:17;;;;;;;4.07;3.45;;;7.60;99.90;;;;;;2097356;28;20203;-68
2021/06/02 02:00:54;;;;;;;4.35;3.40;;;7.60;99.90;;;;;;2097408;28;20194;-68
2021/06/02 02:02:36;;;;;;;4.63;3.33;;;7.60;99.90;;;;;;2088244;28;20570;-68
2021/06/02 02:04:11;;;;;;;4.50;3.20;;;7.60;99.90;;;;;;2092664;28;20178;-68
2021/06/02 02:05:51;;;;;;;3.20;2.90;;;7.50;99.90;;;;;;2088697;28;20365;-68
2021/06/02 02:07:48;;;;;;;5.05;3.35;;;7.50;99.90;;;;;;2081038;28;20199;-68
2021/06/02 02:09:03;;;;;;;4.38;3.63;;;7.50;99.90;;;;;;2039982;29;20324;-68
2021/06/02 02:10:05;;;;;;;4.05;3.40;;;7.40;99.90;;;;;;2047541;29;20217;-68
2021/06/02 02:11:39;;;;;;;5.72;3.50;;;7.40;99.90;;;;;;2047289;29;20673;-68
2021/06/02 02:12:57;;;;;;;4.07;3.22;;;7.40;99.90;;;;;;2047477;29;20187;-68
2021/06/02 02:14:53;;;;;;;4.25;3.20;;;7.40;99.90;;;;;;2047441;29;20198;-68
2021/06/02 02:16:21;;;;;;;3.50;3.20;;;7.30;99.90;;;;;;2097243;28;20176;-68
2021/06/02 02:17:52;;;;;;;5.90;3.00;;;7.30;99.90;;;;;;2097637;28;20183;-68
2021/06/02 02:19:30;;;;;;;3.40;3.03;;;7.30;99.90;;;;;;2097168;28;20182;-68
2021/06/02 02:21:01;;;;;;;3.78;2.92;;;7.30;99.90;;;;;;2097279;28;20181;-68
2021/06/02 02:22:41;;;;;;;3.40;3.08;;;7.30;99.90;;;;;;2096939;28;20541;-68
2021/06/02 02:23:56;;;;;;;4.45;3.42;;;7.30;99.90;;;;;;2097100;28;20190;-67
2021/06/02 02:25:06;;;;;;;5.72;3.45;;;7.20;99.90;;;;;;2096601;28;20229;-68
2021/06/02 02:26:19;;;;;;;3.45;3.15;;;7.20;99.90;;;;;;2088255;28;20184;-68
2021/06/02 02:28:00;;;;;;;4.22;3.20;;;7.20;99.90;;;;;;2090006;28;20212;-70
2021/06/02 02:29:32;;;;;;;3.88;3.35;;;7.10;99.90;;;;;;2097329;28;20588;-67
2021/06/02 02:31:06;;;;;;;4.32;2.88;;;7.10;99.90;;;;;;2097260;28;20262;-69
2021/06/02 02:32:56;;;;;;;4.15;3.10;;;7.20;99.90;;;;;;2096866;28;20327;-69
2021/06/02 02:34:18;;;;;;;5.43;2.97;;;7.20;99.90;;;;;;2097146;28;20614;-69
2021/06/02 02:35:51;;;;;;;4.63;3.25;;;7.20;99.90;;;;;;2097132;28;20316;-69
2021/06/02 02:37:03;;;;;;;4.78;3.40;;;7.20;99.90;;;;;;2096686;28;20287;-67
2021/06/02 02:38:55;;;;;;;4.20;3.00;;;7.10;99.90;;;;;;2096541;28;20178;-67
2021/06/02 02:40:07;;;;;;;3.75;3.38;;;7.20;99.90;;;;;;2097112;28;20170;-67
2021/06/02 02:41:45;;;;;;;5.93;3.20;;;7.10;99.90;;;;;;2097121;28;20190;-67
2021/06/02 02:43:03;;;;;;;5.00;3.40;;;7.10;99.90;;;;;;2097263;28;20163;-67
2021/06/02 02:44:45;;;;;;;7.70;3.30;;;7.10;99.90;;;;;;2096656;28;20183;-67
2021/06/02 02:46:21;;;;;;;4.65;3.22;;;7.10;99.90;;;;;;2062500;28;20186;-67
2021/06/02 02:48:02;;;;;;;3.90;3.45;;;7.00;99.90;;;;;;2096592;28;20182;-67
2021/06/02 02:49:46;;;;;;;4.78;3.25;;;7.00;99.90;;;;;;2096847;28;20187;-67
2021/06/02 02:51:23;;;;;;;4.80;3.55;;;7.10;99.90;;;;;;2096499;28;20176;-67
2021/06/02 02:52:51;;;;;;;4.32;3.15;;;7.10;99.90;;;;;;2096886;28;20207;-68
2021/06/02 02:54:18;;;;;;;3.80;3.20;;;7.10;99.90;;;;;;2096648;28;20245;-68
2021/06/02 02:55:27;;;;;;;4.15;3.00;;;7.00;99.90;;;;;;2083850;28;20298;-67
2021/06/02 02:57:13;;;;;;;4.72;3.45;;;7.00;99.90;;;;;;2089196;28;20228;-68
2021/06/02 02:58:37;;;;;;;3.60;3.10;;;7.00;99.90;;;;;;2055119;28;20204;-68
2021/06/02 02:59:57;;;;;;;3.80;3.40;;;7.00;99.90;;;;;;2091423;28;20182;-68
2021/06/02 03:01:21;;;;;;;5.03;3.38;;;7.00;99.90;;;;;;2096406;28;20674;-68
2021/06/02 03:02:44;;;;;;;4.47;3.67;;;7.00;99.90;;;;;;2087937;28;20177;-68
2021/06/02 03:04:25;;;;;;;5.57;3.40;;;7.00;99.90;;;;;;2091192;28;20175;-68
2021/06/02 03:05:37;;;;;;;3.92;3.30;;;7.00;99.90;;;;;;2062727;28;20221;-68
2021/06/02 03:06:46;;;;;;;5.25;3.53;;;7.00;99.90;;;;;;2055188;28;20173;-68
2021/06/02 03:08:17;;;;;;;3.75;3.40;;;7.00;99.90;;;;;;2068072;28;20176;-68
2021/06/02 03:09:46;;;;;;;4.88;3.63;;;7.10;99.90;;;;;;2092324;28;20292;-68
2021/06/02 03:11:06;;;;;;;4.32;3.33;;;7.00;99.90;;;;;;2088458;28;20191;-68
2021/06/02 03:12:37;;;;;;;4.63;3.53;;;7.00;99.90;;;;;;2087982;28;20380;-68
2021/06/02 03:13:47;;;;;;;4.50;3.67;;;7.10;99.90;;;;;;2103868;22;20190;-63
2021/06/02 03:15:04;;;;;;;6.00;4.07;;;7.00;99.90;;;;;;2080002;28;20224;-63
2021/06/02 03:16:12;;;;;;;5.07;4.20;;;6.90;99.90;;;;;;2079917;28;20177;-63
2021/06/02 03:17:24;;;;;;;3.88;3.45;;;6.90;99.90;;;;;;2088092;28;20662;-63
2021/06/02 03:18:48;;;;;;;4.78;3.70;;;6.90;99.90;;;;;;2080190;28;20180;-63
2021/06/02 03:19:59;;;;;;;5.50;3.45;;;6.90;99.90;;;;;;2075128;28;20172;-63
2021/06/02 03:21:41;;;;;;;4.75;3.40;;;6.90;99.90;;;;;;2080519;28;20676;-64
2021/06/02 03:23:10;;;;;;;3.88;3.28;;;6.90;99.90;;;;;;2080827;28;20172;-63
2021/06/02 03:24:22;;;;;;;5.35;3.40;;;6.90;99.90;;;;;;2080150;28;20208;-64
2021/06/02 03:25:48;;;;;;;4.50;3.13;;;6.80;99.90;;;;;;2080363;28;20249;-64
2021/06/02 03:26:58;;;;;;;4.38;3.20;;;6.80;99.90;;;;;;2080236;28;20180;-64
2021/06/02 03:28:31;;;;;;;4.78;3.25;;;6.90;99.90;;;;;;2073307;28;20639;-64
2021/06/02 03:30:04;;;;;;;4.28;3.53;;;6.90;99.90;;;;;;2080682;28;20177;-64
2021/06/02 03:31:31;;;;;;;4.85;3.13;;;6.90;99.90;;;;;;2081024;28;20193;-64
2021/06/02 03:32:47;;;;;;;3.95;3.55;;;6.90;99.90;;;;;;2080099;28;20208;-64
2021/06/02 03:34:31;;;;;;;3.50;3.20;;;6.90;99.90;;;;;;2073939;28;20618;-64
2021/06/02 03:36:03;;;;;;;4.38;2.95;;;6.90;99.90;;;;;;2081007;28;20194;-64
2021/06/02 03:37:13;;;;;;;5.38;3.40;;;6.90;99.90;;;;;;2080116;28;20311;-63
2021/06/02 03:38:47;;;;;;;4.18;3.05;;;6.90;99.90;;;;;;2080200;28;20567;-64
2021/06/02 03:40:18;;;;;;;4.40;3.42;;;7.00;99.90;;;;;;2080527;28;20176;-64
2021/06/02 03:42:02;;;;;;;3.83;3.30;;;6.90;99.90;;;;;;2079852;28;20168;-64
2021/06/02 03:43:24;;;;;;;3.63;3.22;;;6.90;99.90;;;;;;2077770;28;20207;-64
2021/06/02 03:44:59;;;;;;;5.47;3.28;;;6.90;99.90;;;;;;2080230;28;20179;-64
2021/06/02 03:46:06;;;;;;;3.85;3.20;;;7.00;99.90;;;;;;2080251;28;20279;-64
2021/06/02 03:47:41;;;;;;;4.40;3.05;;;7.00;99.90;;;;;;2080566;28;20194;-64
2021/06/02 03:49:00;;;;;;;4.97;3.35;;;7.00;99.90;;;;;;2080096;28;20165;-64
2021/06/02 03:50:13;;;;;;;3.63;2.95;;;6.90;99.90;;;;;;2082508;28;20156;-63
2021/06/02 03:51:30;;;;;;;3.33;2.90;;;6.90;99.90;;;;;;2086547;28;20188;-63
2021/06/02 03:53:07;;;;;;;3.75;3.38;;;7.00;99.90;;;;;;2080133;28;20203;-64
2021/06/02 03:54:31;;;;;;;4.03;2.97;;;7.00;99.90;;;;;;2080348;28;20208;-64
2021/06/02 03:55:55;;;;;;;3.50;3.20;;;7.10;99.90;;;;;;2079916;28;20165;-63
2021/06/02 03:57:11;;;;;;;3.45;3.00;;;7.00;99.90;;;;;;2075160;28;20165;-64
2021/06/02 03:58:52;;;;;;;3.78;3.08;;;7.10;99.90;;;;;;2081315;28;20203;-64
2021/06/02 04:00:05;;;;;;;3.05;2.72;;;7.10;99.90;;;;;;2081515;28;20230;-63
2021/06/02 04:01:46;;;;;;;4.78;2.90;;;7.10;99.90;;;;;;2081695;28;20189;-64
2021/06/02 04:03:22;;;;;;;3.28;2.90;;;7.10;99.90;;;;;;2082154;28;20180;-64
2021/06/02 04:04:49;;;;;;;3.42;3.10;;;7.10;99.90;;;;;;2081620;28;20279;-63
2021/06/02 04:06:13;;;;;;;4.10;2.95;;;7.10;99.90;;;;;;2076578;28;20165;-64
2021/06/02 04:07:30;;;;;;;3.45;2.90;;;7.20;99.90;;;;;;2081506;28;20208;-64
2021/06/02 04:08:57;;;;;;;3.30;3.00;;;7.10;99.90;;;;;;2075714;28;20656;-63
2021/06/02 04:10:13;;;;;;;5.00;3.47;;;7.10;99.90;;;;;;2082747;28;20203;-63
2021/06/02 04:11:41;;;;;;;3.83;3.17;;;7.20;99.90;;;;;;2082868;28;20169;-63
2021/06/02 04:13:13;;;;;;;4.35;3.33;;;7.20;99.90;;;;;;2083003;28;20169;-65
2021/06/02 04:14:28;;;;;;;3.75;3.22;;;7.20;99.90;;;;;;2070813;28;20301;-63
2021/06/02 04:15:30;;;;;;;4.53;2.80;;;7.20;99.90;;;;;;2083072;28;20261;-63
2021/06/02 04:16:41;;;;;;;3.75;2.80;;;7.30;99.90;;;;;;2082587;28;20190;-63
2021/06/02 04:17:49;;;;;;;3.90;3.50;;;7.30;99.90;;;;;;2082725;28;20300;-63
2021/06/02 04:18:51;;;;;;;5.32;3.28;;;7.30;99.90;;;;;;2083017;28;20264;-63
2021/06/02 04:19:54;;;;;;;5.20;3.30;;;7.30;99.90;;;;;;2082585;28;20193;-64
2021/06/02 04:20:56;;;;;;;3.90;3.50;;;7.40;99.90;;;;;;2082833;28;20204;-63
2021/06/02 04:22:08;;;;;;;5.22;3.38;;;7.40;99.90;;;;;;2083124;28;20260;-64
2021/06/02 04:23:10;;;;;;;3.70;3.15;;;7.40;99.90;;;;;;2089600;28;20658;-64
2021/06/02 04:24:18;;;;;;;3.63;2.88;;;7.40;99.90;;;;;;2090593;28;20639;-64
2021/06/02 04:25:20;;;;;;;4.13;3.40;;;7.50;99.90;;;;;;2090807;28;20179;-64
2021/06/02 04:26:22;;;;;;;3.47;3.17;;;7.50;99.90;;;;;;2091241;28;20732;-64
2021/06/02 04:27:23;;;;;;;4.25;3.30;;;7.50;99.90;;;;;;2090663;28;20189;-65
2021/06/02 04:28:25;;;;;;;3.92;3.45;;;7.60;99.90;;;;;;2082432;28;20187;-65
2021/06/02 04:29:27;;;;;;;4.30;2.95;;;7.60;99.90;;;;;;2082456;28;20239;-65
2021/06/02 04:30:30;;;;;;;3.40;3.10;;;7.50;99.90;;;;;;2090727;28;20184;-64
2021/06/02 04:31:31;;;;;;;3.47;2.90;;;7.60;99.90;;;;;;2091393;28;20435;-65
2021/06/02 04:32:41;;;;;;;3.78;3.05;;;7.60;99.90;;;;;;2090984;28;20261;-64
2021/06/02 04:33:43;;;;;;;5.07;2.92;;;7.60;99.90;;;;;;2091173;28;20231;-64
2021/06/02 04:34:45;;;;;;;5.18;2.90;;;7.60;99.90;;;;;;2090943;28;20643;-64
2021/06/02 04:35:50;;;;;;;3.35;2.78;;;7.60;99.90;;;;;;2091185;28;20191;-64
2021/06/02 04:37:00;;;;;;;3.13;2.83;;;7.60;99.90;;;;;;2090857;28;20153;-65
2021/06/02 04:38:02;;;;;;;3.75;3.00;;;7.60;99.90;;;;;;2090960;28;20169;-64
2021/06/02 04:39:03;;;;;;;3.20;2.90;;;7.60;99.90;;;;;;2091107;28;20184;-64
2021/06/02 04:40:07;;;;;;;4.00;2.97;;;7.70;99.90;;;;;;2091311;28;20249;-64
2021/06/02 04:41:10;;;;;;;3.28;2.97;;;7.70;99.90;;;;;;2090570;28;20616;-64
2021/06/02 04:42:11;;;;;;;4.93;2.88;;;7.80;99.90;;;;;;2090697;28;20199;-65
2021/06/02 04:43:14;;;;;;;3.47;3.00;;;7.80;99.90;;;;;;2090341;28;20571;-64
2021/06/02 04:44:16;;;;;;;5.60;2.80;;;7.80;99.90;;;;;;2090960;28;20222;-64
2021/06/02 04:45:29;;;;;;;4.07;3.35;;;7.90;99.90;;;;;;2090784;28;20234;-64
2021/06/02 04:46:30;;;;;;;3.25;2.90;;;7.90;99.90;;;;;;2090751;28;20312;-64
2021/06/02 04:47:33;;;;;;;6.90;3.20;;;8.00;99.90;;;;;;2090083;28;20266;-64
2021/06/02 04:48:35;;;;;;;3.65;3.00;;;7.90;99.90;;;;;;2090123;28;20187;-65
2021/06/02 04:50:16;;;;;;;6.03;2.90;;;8.00;99.90;;;;;;2090685;28;20180;-64
2021/06/02 04:51:59;;;;;;;3.00;2.70;;;8.00;99.90;;;;;;2090377;28;20255;-64
2021/06/02 04:53:39;;;;;;;6.82;3.08;;;8.10;99.90;;;;;;2090916;28;20232;-64
2021/06/02 04:55:14;;;;;;;3.38;2.38;;;8.10;99.90;;;;;;2090736;28;20215;-64
2021/06/02 04:57:14;;;;;;;4.05;2.58;;;8.20;99.90;;;;;;2090723;28;20230;-64
2021/06/02 04:58:34;;;;;;;3.38;2.78;;;8.30;99.90;;;;;;2061543;28;20577;-64
2021/06/02 05:00:12;;;;;;;4.53;2.60;;;8.40;99.90;;;;;;2090412;28;20226;-64
2021/06/02 05:01:30;;;;;;;3.28;2.75;;;8.40;99.90;;;;;;2089865;28;20251;-64
2021/06/02 05:03:16;;;;;;;5.05;2.72;;;8.50;99.90;;;;;;2084201;28;20192;-64
2021/06/02 05:05:03;;;;;;;3.22;2.65;;;8.50;99.90;;;;;;2059698;28;20259;-64
2021/06/02 05:06:39;;;;;;;2.70;2.50;;;8.60;99.90;;;;;;2090357;28;20195;-64
2021/06/02 05:08:03;;;;;;;3.35;2.97;;;8.70;99.90;;;;;;2090610;28;20183;-65
2021/06/02 05:09:34;;;;;;;3.65;2.85;;;8.80;99.90;;;;;;2090376;28;20270;-64
2021/06/02 05:11:20;;;;;;;4.32;3.20;;;8.80;99.90;;;;;;2090331;28;20173;-64
2021/06/02 05:13:09;;;;;;;3.03;2.72;;;8.80;99.90;;;;;;2090435;28;20207;-64
2021/06/02 05:15:21;;;;;;;3.47;2.58;;;8.80;99.90;;;;;;2066745;28;20226;-64
2021/06/02 05:17:12;;;;;;;3.33;2.45;;;8.80;99.90;;;;;;2089823;28;20172;-64
2021/06/02 05:19:18;;;;;;;5.05;2.92;;;8.90;99.90;;;;;;2076005;28;20213;-65
2021/06/02 05:22:42;;;;;;;3.90;2.80;;;8.90;99.90;;;;;;2090018;28;20165;-64
2021/06/02 05:24:15;;;;;;;3.97;2.75;;;9.00;99.90;;;;;;2085930;28;20573;-64
2021/06/02 05:26:11;;;;;;;3.85;3.08;;;9.00;99.90;;;;;;2089895;28;20535;-65
2021/06/02 05:27:52;;;;;;;4.80;2.60;;;9.10;99.90;;;;;;2089991;28;20185;-64
2021/06/02 05:29:55;;;;;;;2.78;2.50;;;9.00;99.90;;;;;;2090001;28;20172;-64
2021/06/02 05:31:39;;;;;;;4.50;2.58;;;9.10;99.90;;;;;;2090302;28;20179;-64
2021/06/02 05:33:27;;;;;;;2.90;2.45;;;9.20;99.90;;;;;;2089626;28;20208;-64
2021/06/02 05:34:59;;;;;;;5.03;2.40;;;9.20;99.90;;;;;;2089749;28;20179;-64
2021/06/02 05:36:23;;;;;;;6.30;2.95;;;9.30;99.90;;;;;;2088956;28;20169;-64
2021/06/02 05:38:19;;;;;;;5.43;2.50;;;9.30;99.90;;;;;;2089046;28;20172;-64
2021/06/02 05:39:56;;;;;;;2.45;2.25;;;9.40;99.90;;;;;;2089661;28;20644;-64
2021/06/02 05:41:37;;;;;;;3.72;2.70;;;9.50;99.90;;;;;;2089773;28;20234;-64
2021/06/02 05:43:02;;;;;;;4.50;2.90;;;9.50;99.90;;;;;;2088929;28;20167;-64
2021/06/02 05:44:59;;;;;;;4.18;2.60;;;9.60;99.90;;;;;;2089029;28;20201;-64
2021/06/02 05:46:31;;;;;;;2.92;2.42;;;9.70;99.90;;;;;;2089425;28;20659;-64
2021/06/02 05:48:14;;;;;;;4.22;2.60;;;9.80;99.90;;;;;;2089446;28;20571;-64
2021/06/02 05:49:47;;;;;;;5.00;2.63;;;9.90;99.90;;;;;;2089709;28;20255;-64
2021/06/02 05:51:15;;;;;;;4.82;2.35;;;10.00;99.90;;;;;;2088950;28;20165;-64
2021/06/02 05:52:46;;;;;;;4.78;2.40;;;10.10;99.90;;;;;;2088936;28;20254;-65
2021/06/02 05:54:51;;;;;;;4.25;2.35;;;10.30;99.90;;;;;;2089293;28;20201;-65
2021/06/02 05:56:18;;;;;;;4.40;2.63;;;10.30;99.90;;;;;;2088651;28;20178;-64
2021/06/02 05:58:07;;;;;;;3.00;2.50;;;10.40;99.90;;;;;;2084189;28;20177;-64
2021/06/02 05:59:35;;;;;;;3.40;2.22;;;10.50;99.90;;;;;;2089112;28;20173;-64
2021/06/02 06:01:03;;;;;;;2.90;1.90;;;10.50;99.90;;;;;;2089228;28;20190;-64
2021/06/02 06:02:53;;;;;;;2.90;2.20;;;10.60;99.90;;;;;;2089069;28;20790;-64
2021/06/02 06:04:24;;;;;;;3.35;2.20;;;10.60;99.90;;;;;;2089119;28;20203;-64
2021/06/02 06:06:38;;;;;;;3.00;2.17;;;10.70;99.90;;;;;;2089297;28;20169;-64
2021/06/02 06:08:29;;;;;;;2.42;2.05;;;10.80;99.90;;;;;;2047892;29;20711;-64
2021/06/02 06:10:28;;;;;;;2.33;2.13;;;10.90;99.90;;;;;;2041745;28;20200;-62
2021/06/02 06:12:06;;;;;;;3.35;2.30;;;10.90;99.90;;;;;;2055469;28;20722;-65
2021/06/02 06:13:12;;;;;;;2.38;2.17;;;11.00;99.90;;;;;;2084293;28;20716;-64
2021/06/02 06:14:59;;;;;;;3.53;2.40;;;11.10;99.90;;;;;;2089071;28;20235;-64
2021/06/02 06:16:27;;;;;;;4.55;2.33;;;11.10;99.90;;;;;;2089335;28;20262;-64
2021/06/02 06:18:07;;;;;;;4.82;2.17;;;11.20;99.90;;;;;;2087085;28;20170;-67
2021/06/02 06:19:30;;;;;;;3.45;1.90;;;11.30;99.90;;;;;;2089213;28;20688;-66
2021/06/02 06:21:18;;;;;;;5.40;2.17;;;11.40;99.90;;;;;;2090055;28;20206;-64
2021/06/02 06:22:55;;;;;;;2.33;2.10;;;11.50;99.90;;;;;;2060558;28;20204;-64
2021/06/02 06:24:03;;;;;;;3.65;2.33;;;11.60;99.90;;;;;;2080163;28;20200;-64
2021/06/02 06:25:10;;;;;;;2.20;2.00;;;11.70;99.90;;;;;;2079803;28;20168;-65
2021/06/02 06:26:15;;;;;;;2.33;2.10;;;11.80;99.90;;;;;;2080360;28;20168;-64
2021/06/02 06:27:31;;;;;;;3.15;2.35;;;11.80;99.90;;;;;;2080760;28;20258;-65
2021/06/02 06:28:54;;;;;;;3.45;2.38;;;11.90;99.90;;;;;;2083630;28;20179;-64
2021/06/02 06:30:05;;;;;;;3.35;2.05;;;12.00;99.90;;;;;;2080074;28;20647;-64
2021/06/02 06:31:13;;;;;;;2.22;2.03;;;12.10;99.90;;;;;;2080491;28;20170;-64
2021/06/02 06:32:15;;;;;;;2.80;2.10;;;12.20;99.90;;;;;;2080055;28;20197;-64
2021/06/02 06:33:17;;;;;;;3.42;2.00;;;12.30;99.90;;;;;;2072055;28;20209;-65
2021/06/02 06:34:24;;;;;;;5.03;2.00;;;12.40;99.50;;;;;;2080281;28;20572;-65
2021/06/02 06:35:27;;;;;;;2.40;2.20;;;12.50;99.60;;;;;;2080324;28;20177;-63
2021/06/02 06:36:28;;;;;;;2.65;2.22;;;12.60;98.90;;;;;;2080271;28;20195;-65
2021/06/02 06:37:33;;;;;;;2.77;2.10;;;12.70;99.00;;;;;;2080071;28;20185;-64
2021/06/02 06:38:40;;;;;;;3.00;2.03;;;12.80;99.00;;;;;;2072848;28;20205;-65
2021/06/02 06:40:06;;;;;;;3.55;2.30;;;12.80;97.90;;;;;;2080208;28;20185;-65
2021/06/02 06:41:08;;;;;;;2.35;2.15;;;12.90;96.70;;;;;;2080208;28;20189;-63
2021/06/02 06:42:15;;;;;;;2.25;2.03;;;13.00;96.00;;;;;;2079814;28;20184;-65
2021/06/02 06:43:18;;;;;;;4.53;2.13;;;13.10;96.40;;;;;;2080193;28;20165;-65
2021/06/02 06:44:21;;;;;;;3.38;2.40;;;13.20;96.60;;;;;;2080810;28;20674;-65
2021/06/02 06:45:38;;;;;;;2.30;2.10;;;13.20;96.60;;;;;;2080162;28;20273;-64
2021/06/02 06:46:40;;;;;;;4.28;2.40;;;13.40;97.60;;;;;;2074272;28;20169;-65
2021/06/02 06:47:41;;;;;;;3.97;2.72;;;13.50;98.40;;;;;;2072670;28;20178;-65
2021/06/02 06:48:47;;;;;;;3.70;2.55;;;13.50;98.80;;;;;;2079963;28;20191;-64
2021/06/02 06:49:56;;;;;;;3.33;2.40;;;13.60;98.90;;;;;;2080893;28;20176;-65
2021/06/02 06:50:59;;;;;;;3.63;2.33;;;13.70;98.60;;;;;;2080796;28;20264;-65
2021/06/02 06:52:01;;;;;;;3.10;2.10;;;13.80;98.20;;;;;;2080551;28;20181;-65
2021/06/02 06:53:05;;;;;;;3.35;2.20;;;13.80;97.70;;;;;;2080998;28;20659;-64
2021/06/02 06:54:12;;;;;;;4.10;2.22;;;13.90;97.20;;;;;;2079988;28;20196;-65
2021/06/02 06:55:14;;;;;;;3.28;2.20;;;14.00;96.70;;;;;;2073044;28;20192;-65
2021/06/02 06:56:18;;;;;;;2.28;2.08;;;14.10;95.90;;;;;;2080260;28;20195;-64
2021/06/02 06:57:22;;;;;;;3.10;2.20;;;14.20;95.50;;;;;;2080850;28;20644;-65
2021/06/02 06:58:24;;;;;;;4.35;2.28;;;14.30;94.90;;;;;;2080208;28;20188;-65
2021/06/02 06:59:25;;;;;;;2.53;2.25;;;14.40;94.70;;;;;;2080278;28;20183;-65
2021/06/02 07:00:27;;;;;;;3.37;2.20;;;14.50;94.60;;;;;;2080089;28;20208;-63
2021/06/02 07:01:28;;;;;;;4.07;2.17;;;14.60;94.30;;;;;;2072013;28;20181;-63
2021/06/02 07:02:29;;;;;;;2.17;1.90;;;14.60;93.80;;;;;;2080159;28;20767;-63
2021/06/02 07:03:30;;;;;;;4.47;2.25;;;14.80;93.90;;;;;;2080856;28;20263;-63
2021/06/02 07:04:33;;;;;;;4.17;2.40;;;14.80;93.60;;;;;;2080851;28;20181;-63
2021/06/02 07:05:34;;;;;;;4.57;2.30;;;14.90;93.70;;;;;;2080162;28;20189;-62
2021/06/02 07:06:37;;;;;;;3.13;2.10;;;15.00;93.60;;;;;;2080262;28;20267;-62
2021/06/02 07:07:43;;;;;;;3.53;2.03;;;15.10;93.00;;;;;;2080796;28;20415;-63
2021/06/02 07:08:46;;;;;;;3.78;2.00;;;15.20;92.70;;;;;;2080865;28;20180;-64
2021/06/02 07:09:48;;;;;;;3.25;2.00;;;15.30;92.00;;;;;;2080152;28;20314;-64
2021/06/02 07:10:48;;;;;;;4.32;2.17;;;15.50;85.00;;;;;;2071936;28;20185;-63
2021/06/02 07:11:50;;;;;;;2.70;1.83;;;15.60;78.80;;;;;;2079790;28;20185;-63
2021/06/02 07:12:51;;;;;;;3.20;2.40;;;15.80;76.90;;;;;;2080183;28;20187;-63
2021/06/02 07:13:52;;;;;;;3.60;2.10;;;16.00;79.00;;;;;;2071800;28;20209;-63
2021/06/02 07:14:54;;;;;;;4.00;2.07;;;16.10;79.40;;;;;;2072118;28;20182;-62
2021/06/02 07:15:59;;;;;;;4.97;3.10;;;16.30;75.90;;;;;;2079939;28;20967;-62
2021/06/02 07:17:05;;;;;;;2.93;2.47;;;16.40;76.20;;;;;;2080801;28;20466;-63
2021/06/02 07:18:06;;;;;;;6.87;2.60;;;16.40;72.70;;;;;;2080797;28;20396;-64
2021/06/02 07:19:08;;;;;;;2.80;2.00;;;16.50;74.60;;;;;;2079992;28;20507;-64
2021/06/02 07:20:10;;;;;;;2.00;1.90;;;16.70;69.90;;;;;;2071973;28;20421;-63
2021/06/02 07:21:13;;;;;;;3.93;2.57;;;16.80;70.50;;;;;;2080042;28;20416;-63
2021/06/02 07:22:19;;;;;;;2.30;2.10;;;16.90;70.20;;;;;;2079957;28;20416;-63
2021/06/02 07:23:20;;;;;;;4.07;2.20;;;17.00;71.30;;;;;;2079959;28;20801;-64
2021/06/02 07:24:21;;;;;;;1.97;1.77;;;17.00;71.10;;;;;;2080811;28;20420;-63
2021/06/02 07:25:28;;;;;;;2.83;2.10;;;17.00;69.80;;;;;;2080623;28;20787;-65
2021/06/02 07:26:29;;;;;;;2.53;2.00;;;17.10;70.90;;;;;;2080670;28;20526;-63
2021/06/02 07:27:31;;;;;;;2.10;1.90;;;17.10;71.40;;;;;;2079991;28;20431;-63
2021/06/02 07:28:40;;;;;;;3.20;2.13;;;17.20;70.50;;;;;;2079977;28;20502;-63
2021/06/02 07:29:42;;;;;;;3.07;2.20;;;17.20;69.50;;;;;;2080608;28;20748;-63
2021/06/02 07:30:43;;;;;;;5.13;1.93;;;17.30;68.00;;;;;;2080796;28;20447;-63
2021/06/02 07:31:44;;;;;;;2.17;1.83;;;17.50;71.60;;;;;;2080578;28;20428;-63
2021/06/02 07:32:45;;;;;;;3.80;2.20;;;17.60;70.70;;;;;;2082228;28;20208;-66
2021/06/02 07:33:47;;;;;;;4.77;2.33;;;17.70;67.50;;;;;;2082168;28;20435;-63
2021/06/02 07:34:47;;;;;;;4.70;1.87;;;17.90;66.90;;;;;;2082252;28;20188;-63
2021/06/02 07:35:48;;;;;;;3.37;2.20;;;17.90;69.90;;;;;;2082022;28;20412;-63